sensor_id;sensor_type;location;lat;lon;timestamp;pressure;altitude;pressure_sealevel;temperature;humidity
39105;BME280;46464;51.154;13.812;2023-10-09T00:01:07;52291.59;;;-146.96;100.00
39105;BME280;46464;51.154;13.812;2023-10-09T00:03:40;52344.50;;;-146.96;100.00
39105;BME280;46464;51.154;13.812;2023-10-09T00:06:09;52330.25;;;-146.96;100.00
39105;BME280;46464;51.154;13.812;2023-10-09T00:08:43;52281.44;;;-146.96;100.00
39105;BME280;46464;51.154;13.812;2023-10-09T00:11:11;52334.34;;;-146.96;100.00
39105;BME280;46464;51.154;13.812;2023-10-09T00:13:44;52307.88;;;-146.96;98.65
39105;BME280;46464;51.154;13.812;2023-10-09T00:16:24;52328.22;;;-146.96;97.97
39105;BME280;46464;51.154;13.812;2023-10-09T00:19:01;52271.25;;;-146.96;97.71
39105;BME280;46464;51.154;13.812;2023-10-09T00:21:43;52301.78;;;-146.96;97.77
39105;BME280;46464;51.154;13.812;2023-10-09T00:24:11;52328.22;;;-146.96;97.97
39105;BME280;46464;51.154;13.812;2023-10-09T00:26:40;52334.34;;;-146.96;97.31
39105;BME280;46464;51.154;13.812;2023-10-09T00:29:12;52316.03;;;-146.96;97.47
39105;BME280;46464;51.154;13.812;2023-10-09T00:31:43;52350.59;;;-146.96;97.23
39105;BME280;46464;51.154;13.812;2023-10-09T00:34:16;52360.78;;;-146.96;96.90
39105;BME280;46464;51.154;13.812;2023-10-09T00:36:50;52360.78;;;-146.96;95.92
39105;BME280;46464;51.154;13.812;2023-10-09T00:39:18;52334.34;;;-146.96;95.56
39105;BME280;46464;51.154;13.812;2023-10-09T00:42:07;52332.28;;;-146.96;95.48
39105;BME280;46464;51.154;13.812;2023-10-09T00:44:37;52330.25;;;-146.96;95.46
39105;BME280;46464;51.154;13.812;2023-10-09T00:47:06;52322.13;;;-146.96;95.13
39105;BME280;46464;51.154;13.812;2023-10-09T00:49:50;52293.63;;;-146.96;94.09
39105;BME280;46464;51.154;13.812;2023-10-09T00:52:20;52277.34;;;-146.96;92.85
39105;BME280;46464;51.154;13.812;2023-10-09T00:54:59;52328.22;;;-146.96;92.13
39105;BME280;46464;51.154;13.812;2023-10-09T00:57:28;52297.72;;;-146.96;91.66
39105;BME280;46464;51.154;13.812;2023-10-09T00:59:55;52299.75;;;-146.96;91.27
39105;BME280;46464;51.154;13.812;2023-10-09T01:02:28;52275.31;;;-146.96;91.09
39105;BME280;46464;51.154;13.812;2023-10-09T01:05:08;52328.22;;;-146.96;90.84
39105;BME280;46464;51.154;13.812;2023-10-09T01:07:47;52305.84;;;-146.96;91.24
39105;BME280;46464;51.154;13.812;2023-10-09T01:10:14;52330.25;;;-146.96;91.26
39105;BME280;46464;51.154;13.812;2023-10-09T01:12:42;52291.59;;;-146.96;90.43
39105;BME280;46464;51.154;13.812;2023-10-09T01:15:11;52305.84;;;-146.96;90.39
39105;BME280;46464;51.154;13.812;2023-10-09T01:18:01;52305.84;;;-146.96;90.90
39105;BME280;46464;51.154;13.812;2023-10-09T01:20:28;52301.78;;;-146.96;91.31
39105;BME280;46464;51.154;13.812;2023-10-09T01:23:02;52307.88;;;-146.96;91.48
39105;BME280;46464;51.154;13.812;2023-10-09T01:25:29;52318.06;;;-146.96;92.28
39105;BME280;46464;51.154;13.812;2023-10-09T01:28:10;52269.22;;;-146.96;92.85
39105;BME280;46464;51.154;13.812;2023-10-09T01:30:36;52328.22;;;-146.96;93.74
39105;BME280;46464;51.154;13.812;2023-10-09T01:33:08;52287.53;;;-146.96;94.49
39105;BME280;46464;51.154;13.812;2023-10-09T01:36:00;52297.72;;;-146.96;95.02
39105;BME280;46464;51.154;13.812;2023-10-09T01:38:27;52309.91;;;-146.96;95.65
39105;BME280;46464;51.154;13.812;2023-10-09T01:41:07;52313.97;;;-146.96;97.16
39105;BME280;46464;51.154;13.812;2023-10-09T01:43:42;52326.19;;;-146.96;98.08
39105;BME280;46464;51.154;13.812;2023-10-09T01:46:11;52322.13;;;-146.96;98.88
39105;BME280;46464;51.154;13.812;2023-10-09T01:48:38;52332.28;;;-146.96;99.59
39105;BME280;46464;51.154;13.812;2023-10-09T01:51:13;52346.53;;;-146.96;99.94
39105;BME280;46464;51.154;13.812;2023-10-09T01:53:39;52328.22;;;-146.96;100.00
39105;BME280;46464;51.154;13.812;2023-10-09T01:56:11;52299.75;;;-146.96;100.00
39105;BME280;46464;51.154;13.812;2023-10-09T01:58:44;52322.13;;;-146.96;100.00
39105;BME280;46464;51.154;13.812;2023-10-09T02:01:13;52332.28;;;-146.96;100.00
39105;BME280;46464;51.154;13.812;2023-10-09T02:03:41;52297.72;;;-146.96;100.00
39105;BME280;46464;51.154;13.812;2023-10-09T02:06:09;52316.03;;;-146.96;100.00
39105;BME280;46464;51.154;13.812;2023-10-09T02:08:53;52318.06;;;-146.96;100.00
39105;BME280;46464;51.154;13.812;2023-10-09T02:11:20;52289.56;;;-146.96;100.00
39105;BME280;46464;51.154;13.812;2023-10-09T02:14:04;52356.72;;;-146.96;99.84
39105;BME280;46464;51.154;13.812;2023-10-09T02:16:48;52291.59;;;-146.96;98.85
39105;BME280;46464;51.154;13.812;2023-10-09T02:19:44;52340.44;;;-146.96;98.70
39105;BME280;46464;51.154;13.812;2023-10-09T02:22:14;52320.09;;;-146.96;99.68
39105;BME280;46464;51.154;13.812;2023-10-09T02:24:41;52322.13;;;-146.96;99.14
39105;BME280;46464;51.154;13.812;2023-10-09T02:27:19;52305.84;;;-146.96;98.54
39105;BME280;46464;51.154;13.812;2023-10-09T02:30:04;52330.25;;;-146.96;98.24
39105;BME280;46464;51.154;13.812;2023-10-09T02:32:57;52307.88;;;-146.96;97.84
39105;BME280;46464;51.154;13.812;2023-10-09T02:35:35;52318.06;;;-146.96;97.94
39105;BME280;46464;51.154;13.812;2023-10-09T02:38:05;52309.91;;;-146.96;97.63
39105;BME280;46464;51.154;13.812;2023-10-09T02:40:34;52305.84;;;-146.96;97.41
39105;BME280;46464;51.154;13.812;2023-10-09T02:43:20;52299.75;;;-146.96;96.57
39105;BME280;46464;51.154;13.812;2023-10-09T02:45:47;52344.50;;;-146.96;96.92
39105;BME280;46464;51.154;13.812;2023-10-09T02:48:17;52307.88;;;-146.96;96.52
39105;BME280;46464;51.154;13.812;2023-10-09T02:50:46;52328.22;;;-146.96;96.87
39105;BME280;46464;51.154;13.812;2023-10-09T02:53:13;52320.09;;;-146.96;96.77
39105;BME280;46464;51.154;13.812;2023-10-09T02:55:45;52340.44;;;-146.96;96.88
39105;BME280;46464;51.154;13.812;2023-10-09T02:58:29;52324.16;;;-146.96;97.01
39105;BME280;46464;51.154;13.812;2023-10-09T03:00:58;52338.41;;;-146.96;97.29
39105;BME280;46464;51.154;13.812;2023-10-09T03:03:25;52293.63;;;-146.96;97.87
39105;BME280;46464;51.154;13.812;2023-10-09T03:05:53;52324.16;;;-146.96;97.38
39105;BME280;46464;51.154;13.812;2023-10-09T03:08:19;52322.13;;;-146.96;97.46
39105;BME280;46464;51.154;13.812;2023-10-09T03:10:46;52320.09;;;-146.96;97.62
39105;BME280;46464;51.154;13.812;2023-10-09T03:13:14;52311.94;;;-146.96;97.33
39105;BME280;46464;51.154;13.812;2023-10-09T03:15:46;52328.22;;;-146.96;97.10
39105;BME280;46464;51.154;13.812;2023-10-09T03:18:14;52318.06;;;-146.96;97.30
39105;BME280;46464;51.154;13.812;2023-10-09T03:20:41;52283.47;;;-146.96;97.20
39105;BME280;46464;51.154;13.812;2023-10-09T03:23:08;52334.34;;;-146.96;96.76
39105;BME280;46464;51.154;13.812;2023-10-09T03:25:36;52334.34;;;-146.96;96.83
39105;BME280;46464;51.154;13.812;2023-10-09T03:28:04;52289.56;;;-146.96;96.49
39105;BME280;46464;51.154;13.812;2023-10-09T03:30:30;52352.66;;;-146.96;96.66
39105;BME280;46464;51.154;13.812;2023-10-09T03:32:59;52334.34;;;-146.96;96.71
39105;BME280;46464;51.154;13.812;2023-10-09T03:35:27;52326.19;;;-146.96;97.06
39105;BME280;46464;51.154;13.812;2023-10-09T03:37:57;52330.25;;;-146.96;96.61
39105;BME280;46464;51.154;13.812;2023-10-09T03:40:27;52316.03;;;-146.96;97.06
39105;BME280;46464;51.154;13.812;2023-10-09T03:42:53;52309.91;;;-146.96;97.49
39105;BME280;46464;51.154;13.812;2023-10-09T03:45:20;52307.88;;;-146.96;97.90
39105;BME280;46464;51.154;13.812;2023-10-09T03:47:53;52316.03;;;-146.96;98.28
39105;BME280;46464;51.154;13.812;2023-10-09T03:50:42;52320.09;;;-146.96;99.05
39105;BME280;46464;51.154;13.812;2023-10-09T03:53:09;52291.59;;;-146.96;100.00
39105;BME280;46464;51.154;13.812;2023-10-09T03:55:39;52338.41;;;-146.96;100.00
39105;BME280;46464;51.154;13.812;2023-10-09T03:58:06;52354.69;;;-146.96;100.00
39105;BME280;46464;51.154;13.812;2023-10-09T04:00:33;52364.84;;;-146.96;100.00
39105;BME280;46464;51.154;13.812;2023-10-09T04:03:11;52297.72;;;-146.96;100.00
39105;BME280;46464;51.154;13.812;2023-10-09T04:05:41;52350.59;;;-146.96;100.00
39105;BME280;46464;51.154;13.812;2023-10-09T04:08:10;52305.84;;;-146.96;100.00
39105;BME280;46464;51.154;13.812;2023-10-09T04:10:39;52301.78;;;-146.96;100.00
39105;BME280;46464;51.154;13.812;2023-10-09T04:13:23;52320.09;;;-146.96;100.00
39105;BME280;46464;51.154;13.812;2023-10-09T04:15:50;52332.28;;;-146.96;100.00
39105;BME280;46464;51.154;13.812;2023-10-09T04:18:19;52360.78;;;-146.96;100.00
39105;BME280;46464;51.154;13.812;2023-10-09T04:20:47;52332.28;;;-146.96;100.00
39105;BME280;46464;51.154;13.812;2023-10-09T04:23:32;52299.75;;;-146.96;100.00
39105;BME280;46464;51.154;13.812;2023-10-09T04:26:01;52324.16;;;-146.96;100.00
39105;BME280;46464;51.154;13.812;2023-10-09T04:28:37;52344.50;;;-146.96;100.00
39105;BME280;46464;51.154;13.812;2023-10-09T04:31:03;52311.94;;;-146.96;100.00
39105;BME280;46464;51.154;13.812;2023-10-09T04:33:36;52336.38;;;-146.96;100.00
39105;BME280;46464;51.154;13.812;2023-10-09T04:36:20;52324.16;;;-146.96;100.00
39105;BME280;46464;51.154;13.812;2023-10-09T04:38:47;52332.28;;;-146.96;100.00
39105;BME280;46464;51.154;13.812;2023-10-09T04:41:32;52330.25;;;-146.96;100.00
39105;BME280;46464;51.154;13.812;2023-10-09T04:44:00;52338.41;;;-146.96;100.00
39105;BME280;46464;51.154;13.812;2023-10-09T04:46:47;52352.66;;;-146.96;100.00
39105;BME280;46464;51.154;13.812;2023-10-09T04:49:33;52338.41;;;-146.96;100.00
39105;BME280;46464;51.154;13.812;2023-10-09T04:52:18;52313.97;;;-146.96;100.00
39105;BME280;46464;51.154;13.812;2023-10-09T04:54:46;52368.94;;;-146.96;100.00
39105;BME280;46464;51.154;13.812;2023-10-09T04:57:30;52332.28;;;-146.96;100.00
39105;BME280;46464;51.154;13.812;2023-10-09T05:00:05;52350.59;;;-146.96;100.00
39105;BME280;46464;51.154;13.812;2023-10-09T05:02:33;52350.59;;;-146.96;100.00
39105;BME280;46464;51.154;13.812;2023-10-09T05:05:03;52326.19;;;-146.96;100.00
39105;BME280;46464;51.154;13.812;2023-10-09T05:08:02;52358.75;;;-146.96;100.00
39105;BME280;46464;51.154;13.812;2023-10-09T05:10:45;52358.75;;;-146.96;100.00
39105;BME280;46464;51.154;13.812;2023-10-09T05:13:32;52326.19;;;-146.96;100.00
39105;BME280;46464;51.154;13.812;2023-10-09T05:16:07;52377.06;;;-146.96;100.00
39105;BME280;46464;51.154;13.812;2023-10-09T05:18:42;52328.22;;;-146.96;100.00
39105;BME280;46464;51.154;13.812;2023-10-09T05:21:11;52318.06;;;-146.96;100.00
39105;BME280;46464;51.154;13.812;2023-10-09T05:23:57;52338.41;;;-146.96;100.00
39105;BME280;46464;51.154;13.812;2023-10-09T05:26:47;52334.34;;;-146.96;100.00
39105;BME280;46464;51.154;13.812;2023-10-09T05:29:15;52362.81;;;-146.96;100.00
39105;BME280;46464;51.154;13.812;2023-10-09T05:32:14;52340.44;;;-146.96;100.00
39105;BME280;46464;51.154;13.812;2023-10-09T05:34:41;52326.19;;;-146.96;100.00
39105;BME280;46464;51.154;13.812;2023-10-09T05:37:26;52330.25;;;-146.96;100.00
39105;BME280;46464;51.154;13.812;2023-10-09T05:39:59;52336.38;;;-146.96;100.00
39105;BME280;46464;51.154;13.812;2023-10-09T05:42:26;52324.16;;;-146.96;100.00
39105;BME280;46464;51.154;13.812;2023-10-09T05:45:13;52328.22;;;-146.96;100.00
39105;BME280;46464;51.154;13.812;2023-10-09T05:47:43;52336.38;;;-146.96;100.00
39105;BME280;46464;51.154;13.812;2023-10-09T05:50:31;52320.09;;;-146.96;100.00
39105;BME280;46464;51.154;13.812;2023-10-09T05:53:01;52362.81;;;-146.96;100.00
39105;BME280;46464;51.154;13.812;2023-10-09T05:55:28;52350.59;;;-146.96;100.00
39105;BME280;46464;51.154;13.812;2023-10-09T05:58:14;52334.34;;;-146.96;100.00
39105;BME280;46464;51.154;13.812;2023-10-09T06:00:59;52332.28;;;-146.96;100.00
39105;BME280;46464;51.154;13.812;2023-10-09T06:03:51;52362.81;;;-146.96;100.00
39105;BME280;46464;51.154;13.812;2023-10-09T06:06:21;52350.59;;;-146.96;100.00
39105;BME280;46464;51.154;13.812;2023-10-09T06:09:01;52313.97;;;-146.96;100.00
39105;BME280;46464;51.154;13.812;2023-10-09T06:11:49;52356.72;;;-146.96;100.00
39105;BME280;46464;51.154;13.812;2023-10-09T06:14:16;52336.38;;;-146.96;100.00
39105;BME280;46464;51.154;13.812;2023-10-09T06:17:12;52330.25;;;-146.96;100.00
39105;BME280;46464;51.154;13.812;2023-10-09T06:19:50;52313.97;;;-146.96;100.00
39105;BME280;46464;51.154;13.812;2023-10-09T06:22:24;52324.16;;;-146.96;100.00
39105;BME280;46464;51.154;13.812;2023-10-09T06:25:11;52313.97;;;-146.96;100.00
39105;BME280;46464;51.154;13.812;2023-10-09T06:27:39;52346.53;;;-146.96;100.00
39105;BME280;46464;51.154;13.812;2023-10-09T06:30:08;52318.06;;;-146.96;100.00
39105;BME280;46464;51.154;13.812;2023-10-09T06:32:44;52303.81;;;-146.96;100.00
39105;BME280;46464;51.154;13.812;2023-10-09T06:35:17;52305.84;;;-146.96;100.00
39105;BME280;46464;51.154;13.812;2023-10-09T06:37:44;52299.75;;;-146.96;100.00
39105;BME280;46464;51.154;13.812;2023-10-09T06:40:31;52293.63;;;-146.96;100.00
39105;BME280;46464;51.154;13.812;2023-10-09T06:43:17;52313.97;;;-146.96;100.00
39105;BME280;46464;51.154;13.812;2023-10-09T06:45:43;52299.75;;;-146.96;100.00
39105;BME280;46464;51.154;13.812;2023-10-09T06:48:11;52293.63;;;-146.96;100.00
39105;BME280;46464;51.154;13.812;2023-10-09T06:51:06;52322.13;;;-146.96;100.00
39105;BME280;46464;51.154;13.812;2023-10-09T06:53:54;52238.69;;;-146.96;100.00
39105;BME280;46464;51.154;13.812;2023-10-09T06:56:25;52277.34;;;-146.96;100.00
39105;BME280;46464;51.154;13.812;2023-10-09T06:59:01;52295.66;;;-146.96;100.00
39105;BME280;46464;51.154;13.812;2023-10-09T07:01:31;52279.41;;;-146.96;100.00
39105;BME280;46464;51.154;13.812;2023-10-09T07:04:03;52283.47;;;-146.96;100.00
39105;BME280;46464;51.154;13.812;2023-10-09T07:06:57;52283.47;;;-146.96;100.00
39105;BME280;46464;51.154;13.812;2023-10-09T07:09:25;52295.66;;;-146.96;100.00
39105;BME280;46464;51.154;13.812;2023-10-09T07:12:09;52293.63;;;-146.96;100.00
39105;BME280;46464;51.154;13.812;2023-10-09T07:14:52;52246.84;;;-146.96;100.00
39105;BME280;46464;51.154;13.812;2023-10-09T07:17:28;52291.59;;;-146.96;100.00
39105;BME280;46464;51.154;13.812;2023-10-09T07:20:00;52281.44;;;-146.96;100.00
39105;BME280;46464;51.154;13.812;2023-10-09T07:23:02;52289.56;;;-146.96;100.00
39105;BME280;46464;51.154;13.812;2023-10-09T07:25:47;52299.75;;;-146.96;100.00
39105;BME280;46464;51.154;13.812;2023-10-09T07:28:25;52269.22;;;-146.96;100.00
39105;BME280;46464;51.154;13.812;2023-10-09T07:31:16;52265.16;;;-146.96;100.00
39105;BME280;46464;51.154;13.812;2023-10-09T07:33:51;52271.25;;;-146.96;100.00
39105;BME280;46464;51.154;13.812;2023-10-09T07:36:24;52265.16;;;-146.96;100.00
39105;BME280;46464;51.154;13.812;2023-10-09T07:39:03;52289.56;;;-146.96;100.00
39105;BME280;46464;51.154;13.812;2023-10-09T07:41:42;52261.09;;;-146.96;100.00
39105;BME280;46464;51.154;13.812;2023-10-09T07:44:23;52257.00;;;-146.96;100.00
39105;BME280;46464;51.154;13.812;2023-10-09T07:47:05;52281.44;;;-146.96;100.00
39105;BME280;46464;51.154;13.812;2023-10-09T07:49:45;52283.47;;;-146.96;100.00
39105;BME280;46464;51.154;13.812;2023-10-09T07:52:17;52242.78;;;-146.96;100.00
39105;BME280;46464;51.154;13.812;2023-10-09T07:54:44;52287.53;;;-146.96;100.00
39105;BME280;46464;51.154;13.812;2023-10-09T07:57:20;52244.81;;;-146.96;100.00
39105;BME280;46464;51.154;13.812;2023-10-09T07:59:52;52267.19;;;-146.96;100.00
39105;BME280;46464;51.154;13.812;2023-10-09T08:02:27;52267.19;;;-146.96;100.00
39105;BME280;46464;51.154;13.812;2023-10-09T08:05:00;52283.47;;;-146.96;100.00
39105;BME280;46464;51.154;13.812;2023-10-09T08:07:32;52224.47;;;-146.96;100.00
39105;BME280;46464;51.154;13.812;2023-10-09T08:10:23;52271.25;;;-146.96;100.00
39105;BME280;46464;51.154;13.812;2023-10-09T08:12:50;52263.13;;;-146.96;100.00
39105;BME280;46464;51.154;13.812;2023-10-09T08:15:17;52257.00;;;-146.96;100.00
39105;BME280;46464;51.154;13.812;2023-10-09T08:17:52;52257.00;;;-146.96;100.00
39105;BME280;46464;51.154;13.812;2023-10-09T08:20:37;52283.47;;;-146.96;100.00
39105;BME280;46464;51.154;13.812;2023-10-09T08:23:22;52289.56;;;-146.96;100.00
39105;BME280;46464;51.154;13.812;2023-10-09T08:26:14;52244.81;;;-146.96;100.00
39105;BME280;46464;51.154;13.812;2023-10-09T08:28:41;52254.97;;;-146.96;100.00
39105;BME280;46464;51.154;13.812;2023-10-09T08:31:14;52297.72;;;-146.96;100.00
39105;BME280;46464;51.154;13.812;2023-10-09T08:34:00;52301.78;;;-146.96;100.00
39105;BME280;46464;51.154;13.812;2023-10-09T08:36:30;52248.88;;;-146.96;100.00
39105;BME280;46464;51.154;13.812;2023-10-09T08:39:03;52267.19;;;-146.96;100.00
39105;BME280;46464;51.154;13.812;2023-10-09T08:41:52;52263.13;;;-146.96;100.00
39105;BME280;46464;51.154;13.812;2023-10-09T08:44:19;52293.63;;;-146.96;100.00
39105;BME280;46464;51.154;13.812;2023-10-09T08:46:47;52283.47;;;-146.96;100.00
39105;BME280;46464;51.154;13.812;2023-10-09T08:49:15;52263.13;;;-146.96;100.00
39105;BME280;46464;51.154;13.812;2023-10-09T08:51:42;52281.44;;;-146.96;100.00
39105;BME280;46464;51.154;13.812;2023-10-09T08:54:09;52269.22;;;-146.96;100.00
39105;BME280;46464;51.154;13.812;2023-10-09T08:56:38;52285.50;;;-146.96;100.00
39105;BME280;46464;51.154;13.812;2023-10-09T08:59:16;52234.63;;;-146.96;100.00
39105;BME280;46464;51.154;13.812;2023-10-09T09:01:46;52273.28;;;-146.96;100.00
39105;BME280;46464;51.154;13.812;2023-10-09T09:04:34;52257.00;;;-146.96;100.00
39105;BME280;46464;51.154;13.812;2023-10-09T09:07:01;52240.75;;;-146.96;100.00
39105;BME280;46464;51.154;13.812;2023-10-09T09:09:28;52303.81;;;-146.96;100.00
39105;BME280;46464;51.154;13.812;2023-10-09T09:11:57;52297.72;;;-146.96;100.00
39105;BME280;46464;51.154;13.812;2023-10-09T09:14:36;52281.44;;;-146.96;100.00
39105;BME280;46464;51.154;13.812;2023-10-09T09:17:03;52287.53;;;-146.96;100.00
39105;BME280;46464;51.154;13.812;2023-10-09T09:19:31;52269.22;;;-146.96;100.00
39105;BME280;46464;51.154;13.812;2023-10-09T09:22:12;52277.34;;;-146.96;100.00
39105;BME280;46464;51.154;13.812;2023-10-09T09:24:40;52257.00;;;-146.96;100.00
39105;BME280;46464;51.154;13.812;2023-10-09T09:27:11;52257.00;;;-146.96;100.00
39105;BME280;46464;51.154;13.812;2023-10-09T09:30:00;52259.03;;;-146.96;100.00
39105;BME280;46464;51.154;13.812;2023-10-09T09:32:39;52277.34;;;-146.96;100.00
39105;BME280;46464;51.154;13.812;2023-10-09T09:35:11;52263.13;;;-146.96;100.00
39105;BME280;46464;51.154;13.812;2023-10-09T09:37:52;52271.25;;;-146.96;100.00
39105;BME280;46464;51.154;13.812;2023-10-09T09:40:20;52287.53;;;-146.96;100.00
39105;BME280;46464;51.154;13.812;2023-10-09T09:43:00;52252.94;;;-146.96;100.00
39105;BME280;46464;51.154;13.812;2023-10-09T09:45:32;52248.88;;;-146.96;100.00
39105;BME280;46464;51.154;13.812;2023-10-09T09:48:00;52224.47;;;-146.96;100.00
39105;BME280;46464;51.154;13.812;2023-10-09T09:50:32;52261.09;;;-146.96;100.00
39105;BME280;46464;51.154;13.812;2023-10-09T09:52:59;52238.69;;;-146.96;100.00
39105;BME280;46464;51.154;13.812;2023-10-09T09:55:28;52242.78;;;-146.96;100.00
39105;BME280;46464;51.154;13.812;2023-10-09T09:57:58;52232.59;;;-146.96;100.00
39105;BME280;46464;51.154;13.812;2023-10-09T10:00:27;52242.78;;;-146.96;100.00
39105;BME280;46464;51.154;13.812;2023-10-09T10:03:13;52261.09;;;-146.96;100.00
39105;BME280;46464;51.154;13.812;2023-10-09T10:05:43;52236.66;;;-146.96;100.00
39105;BME280;46464;51.154;13.812;2023-10-09T10:08:16;52250.91;;;-146.96;100.00
39105;BME280;46464;51.154;13.812;2023-10-09T10:10:46;52218.34;;;-146.96;100.00
39105;BME280;46464;51.154;13.812;2023-10-09T10:16:12;52250.91;;;-146.96;100.00
39105;BME280;46464;51.154;13.812;2023-10-09T10:21:26;52212.25;;;-146.96;100.00
39105;BME280;46464;51.154;13.812;2023-10-09T10:23:59;52248.88;;;-146.96;100.00
39105;BME280;46464;51.154;13.812;2023-10-09T10:26:32;52240.75;;;-146.96;100.00
39105;BME280;46464;51.154;13.812;2023-10-09T10:29:18;52218.34;;;-146.96;100.00
39105;BME280;46464;51.154;13.812;2023-10-09T10:31:53;52212.25;;;-146.96;100.00
39105;BME280;46464;51.154;13.812;2023-10-09T10:34:22;52240.75;;;-146.96;100.00
39105;BME280;46464;51.154;13.812;2023-10-09T10:36:50;52263.13;;;-146.96;100.00
39105;BME280;46464;51.154;13.812;2023-10-09T10:39:25;52224.47;;;-146.96;100.00
39105;BME280;46464;51.154;13.812;2023-10-09T10:42:09;52204.13;;;-146.96;100.00
39105;BME280;46464;51.154;13.812;2023-10-09T10:44:42;52208.19;;;-146.96;100.00
39105;BME280;46464;51.154;13.812;2023-10-09T10:47:09;52259.03;;;-146.96;100.00
39105;BME280;46464;51.154;13.812;2023-10-09T10:49:54;52240.75;;;-146.96;100.00
39105;BME280;46464;51.154;13.812;2023-10-09T10:52:37;52228.53;;;-146.96;100.00
39105;BME280;46464;51.154;13.812;2023-10-09T10:55:12;52246.84;;;-146.96;100.00
39105;BME280;46464;51.154;13.812;2023-10-09T10:57:57;52216.31;;;-146.96;100.00
39105;BME280;46464;51.154;13.812;2023-10-09T11:00:28;52242.78;;;-146.96;100.00
39105;BME280;46464;51.154;13.812;2023-10-09T11:03:19;52254.97;;;-146.96;100.00
39105;BME280;46464;51.154;13.812;2023-10-09T11:05:57;52236.66;;;-146.96;100.00
39105;BME280;46464;51.154;13.812;2023-10-09T11:08:48;52228.53;;;-146.96;100.00
39105;BME280;46464;51.154;13.812;2023-10-09T11:11:21;52236.66;;;-146.96;100.00
39105;BME280;46464;51.154;13.812;2023-10-09T11:13:48;52263.13;;;-146.96;100.00
39105;BME280;46464;51.154;13.812;2023-10-09T11:16:24;52226.50;;;-146.96;100.00
39105;BME280;46464;51.154;13.812;2023-10-09T11:19:06;52222.41;;;-146.96;100.00
39105;BME280;46464;51.154;13.812;2023-10-09T11:21:50;52242.78;;;-146.96;100.00
39105;BME280;46464;51.154;13.812;2023-10-09T11:24:28;52220.38;;;-146.96;100.00
39105;BME280;46464;51.154;13.812;2023-10-09T11:27:05;52236.66;;;-146.96;100.00
39105;BME280;46464;51.154;13.812;2023-10-09T11:29:32;52234.63;;;-146.96;100.00
39105;BME280;46464;51.154;13.812;2023-10-09T11:32:15;52220.38;;;-146.96;100.00
39105;BME280;46464;51.154;13.812;2023-10-09T11:34:45;52220.38;;;-146.96;100.00
39105;BME280;46464;51.154;13.812;2023-10-09T11:37:22;52200.03;;;-146.96;100.00
39105;BME280;46464;51.154;13.812;2023-10-09T11:39:54;52220.38;;;-146.96;100.00
39105;BME280;46464;51.154;13.812;2023-10-09T11:42:26;52210.22;;;-146.96;100.00
39105;BME280;46464;51.154;13.812;2023-10-09T11:45:02;52216.31;;;-146.96;100.00
39105;BME280;46464;51.154;13.812;2023-10-09T11:47:46;52248.88;;;-146.96;100.00
39105;BME280;46464;51.154;13.812;2023-10-09T11:53:09;52230.56;;;-146.96;100.00
39105;BME280;46464;51.154;13.812;2023-10-09T11:55:44;52226.50;;;-146.96;100.00
39105;BME280;46464;51.154;13.812;2023-10-09T11:58:18;52232.59;;;-146.96;100.00
39105;BME280;46464;51.154;13.812;2023-10-09T12:00:54;52236.66;;;-146.96;100.00
39105;BME280;46464;51.154;13.812;2023-10-09T12:03:32;52224.47;;;-146.96;100.00
39105;BME280;46464;51.154;13.812;2023-10-09T12:05:59;52218.34;;;-146.96;100.00
39105;BME280;46464;51.154;13.812;2023-10-09T12:08:38;52226.50;;;-146.96;100.00
39105;BME280;46464;51.154;13.812;2023-10-09T12:11:07;52222.41;;;-146.96;100.00
39105;BME280;46464;51.154;13.812;2023-10-09T12:13:38;52242.78;;;-146.96;100.00
39105;BME280;46464;51.154;13.812;2023-10-09T12:16:05;52226.50;;;-146.96;100.00
39105;BME280;46464;51.154;13.812;2023-10-09T12:18:37;52212.25;;;-146.96;100.00
39105;BME280;46464;51.154;13.812;2023-10-09T12:21:07;52234.63;;;-146.96;100.00
39105;BME280;46464;51.154;13.812;2023-10-09T12:23:33;52218.34;;;-146.96;100.00
39105;BME280;46464;51.154;13.812;2023-10-09T12:26:02;52220.38;;;-146.96;100.00
39105;BME280;46464;51.154;13.812;2023-10-09T12:28:29;52232.59;;;-146.96;100.00
39105;BME280;46464;51.154;13.812;2023-10-09T12:30:56;52248.88;;;-146.96;100.00
39105;BME280;46464;51.154;13.812;2023-10-09T12:33:28;52216.31;;;-146.96;100.00
39105;BME280;46464;51.154;13.812;2023-10-09T12:35:55;52210.22;;;-146.96;100.00
39105;BME280;46464;51.154;13.812;2023-10-09T12:38:28;52234.63;;;-146.96;100.00
39105;BME280;46464;51.154;13.812;2023-10-09T12:41:04;52187.84;;;-146.96;100.00
39105;BME280;46464;51.154;13.812;2023-10-09T12:43:44;52248.88;;;-146.96;100.00
39105;BME280;46464;51.154;13.812;2023-10-09T12:46:10;52236.66;;;-146.96;100.00
39105;BME280;46464;51.154;13.812;2023-10-09T12:48:43;52218.34;;;-146.96;100.00
39105;BME280;46464;51.154;13.812;2023-10-09T12:51:12;52263.13;;;-146.96;100.00
39105;BME280;46464;51.154;13.812;2023-10-09T12:53:42;52218.34;;;-146.96;100.00
39105;BME280;46464;51.154;13.812;2023-10-09T12:56:09;52244.81;;;-146.96;100.00
39105;BME280;46464;51.154;13.812;2023-10-09T12:58:38;52230.56;;;-146.96;100.00
39105;BME280;46464;51.154;13.812;2023-10-09T13:01:08;52226.50;;;-146.96;100.00
39105;BME280;46464;51.154;13.812;2023-10-09T13:03:38;52230.56;;;-146.96;100.00
39105;BME280;46464;51.154;13.812;2023-10-09T13:06:05;52257.00;;;-146.96;100.00
39105;BME280;46464;51.154;13.812;2023-10-09T13:08:38;52244.81;;;-146.96;100.00